sensor_id;sensor_type;location;lat;lon;timestamp;P1;durP1;ratioP1;P2;durP2;ratioP2
2756;SDS011;1386;50.862;6.494;2023-07-16T04:38:35;6.70;;;2.93;;
2756;SDS011;1386;50.862;6.494;2023-07-16T04:41:02;4.77;;;2.93;;
2756;SDS011;1386;50.862;6.494;2023-07-16T04:43:29;5.10;;;2.80;;
2756;SDS011;1386;50.862;6.494;2023-07-16T04:45:55;4.73;;;2.93;;
2756;SDS011;1386;50.862;6.494;2023-07-16T04:48:22;10.40;;;3.50;;
2756;SDS011;1386;50.862;6.494;2023-07-16T04:50:50;6.17;;;3.10;;
2756;SDS011;1386;50.862;6.494;2023-07-16T04:53:17;11.20;;;3.17;;
2756;SDS011;1386;50.862;6.494;2023-07-16T04:55:45;6.07;;;3.87;;
2756;SDS011;1386;50.862;6.494;2023-07-16T04:58:12;7.73;;;2.77;;
2756;SDS011;1386;50.862;6.494;2023-07-16T05:00:39;8.07;;;3.13;;
2756;SDS011;1386;50.862;6.494;2023-07-16T05:03:06;7.03;;;3.47;;
2756;SDS011;1386;50.862;6.494;2023-07-16T05:05:33;6.60;;;3.43;;
2756;SDS011;1386;50.862;6.494;2023-07-16T05:08:00;9.33;;;3.70;;
2756;SDS011;1386;50.862;6.494;2023-07-16T05:10:27;7.40;;;3.60;;
2756;SDS011;1386;50.862;6.494;2023-07-16T05:12:55;7.60;;;4.30;;
2756;SDS011;1386;50.862;6.494;2023-07-16T05:15:22;6.60;;;4.07;;
2756;SDS011;1386;50.862;6.494;2023-07-16T05:17:49;11.03;;;3.87;;
2756;SDS011;1386;50.862;6.494;2023-07-16T05:20:16;5.43;;;4.33;;
2756;SDS011;1386;50.862;6.494;2023-07-16T05:22:43;10.17;;;4.40;;
2756;SDS011;1386;50.862;6.494;2023-07-16T05:25:09;6.40;;;3.60;;
2756;SDS011;1386;50.862;6.494;2023-07-16T05:27:36;7.33;;;4.07;;
2756;SDS011;1386;50.862;6.494;2023-07-16T05:30:06;6.93;;;4.83;;
2756;SDS011;1386;50.862;6.494;2023-07-16T05:32:33;8.70;;;4.13;;
2756;SDS011;1386;50.862;6.494;2023-07-16T05:35:00;9.17;;;4.23;;
2756;SDS011;1386;50.862;6.494;2023-07-16T05:37:27;6.13;;;3.60;;
2756;SDS011;1386;50.862;6.494;2023-07-16T05:39:54;7.43;;;4.40;;
2756;SDS011;1386;50.862;6.494;2023-07-16T05:42:21;5.93;;;3.77;;
2756;SDS011;1386;50.862;6.494;2023-07-16T05:44:48;8.70;;;4.80;;
2756;SDS011;1386;50.862;6.494;2023-07-16T05:47:16;10.10;;;4.63;;
2756;SDS011;1386;50.862;6.494;2023-07-16T05:49:43;11.33;;;4.20;;
2756;SDS011;1386;50.862;6.494;2023-07-16T05:52:09;7.80;;;5.00;;
2756;SDS011;1386;50.862;6.494;2023-07-16T05:54:37;7.80;;;4.90;;
2756;SDS011;1386;50.862;6.494;2023-07-16T05:57:04;7.50;;;4.27;;
2756;SDS011;1386;50.862;6.494;2023-07-16T05:59:32;7.93;;;4.73;;
2756;SDS011;1386;50.862;6.494;2023-07-16T06:01:59;14.50;;;4.80;;
2756;SDS011;1386;50.862;6.494;2023-07-16T06:04:27;8.50;;;4.23;;
2756;SDS011;1386;50.862;6.494;2023-07-16T06:06:54;8.13;;;5.17;;
2756;SDS011;1386;50.862;6.494;2023-07-16T06:09:22;8.27;;;5.03;;
2756;SDS011;1386;50.862;6.494;2023-07-16T06:11:49;7.50;;;4.70;;
2756;SDS011;1386;50.862;6.494;2023-07-16T06:14:16;10.53;;;4.90;;
2756;SDS011;1386;50.862;6.494;2023-07-16T06:16:43;8.13;;;5.00;;
2756;SDS011;1386;50.862;6.494;2023-07-16T06:19:10;10.90;;;5.40;;
2756;SDS011;1386;50.862;6.494;2023-07-16T06:21:38;8.43;;;5.50;;
2756;SDS011;1386;50.862;6.494;2023-07-16T06:24:05;9.13;;;5.70;;
2756;SDS011;1386;50.862;6.494;2023-07-16T06:26:32;10.80;;;5.43;;
2756;SDS011;1386;50.862;6.494;2023-07-16T06:28:59;6.80;;;5.03;;
2756;SDS011;1386;50.862;6.494;2023-07-16T06:31:25;7.83;;;5.33;;
2756;SDS011;1386;50.862;6.494;2023-07-16T06:33:52;6.73;;;4.33;;
2756;SDS011;1386;50.862;6.494;2023-07-16T06:36:19;8.90;;;5.90;;
2756;SDS011;1386;50.862;6.494;2023-07-16T06:38:47;8.57;;;5.50;;
2756;SDS011;1386;50.862;6.494;2023-07-16T06:41:14;7.17;;;5.00;;
2756;SDS011;1386;50.862;6.494;2023-07-16T06:43:41;12.83;;;6.00;;
2756;SDS011;1386;50.862;6.494;2023-07-16T06:46:08;8.13;;;4.90;;
2756;SDS011;1386;50.862;6.494;2023-07-16T06:48:34;8.50;;;5.33;;
2756;SDS011;1386;50.862;6.494;2023-07-16T06:51:01;11.63;;;5.67;;
2756;SDS011;1386;50.862;6.494;2023-07-16T06:53:28;7.20;;;4.43;;
2756;SDS011;1386;50.862;6.494;2023-07-16T06:55:56;8.13;;;5.30;;
2756;SDS011;1386;50.862;6.494;2023-07-16T06:58:30;8.23;;;4.60;;
2756;SDS011;1386;50.862;6.494;2023-07-16T07:00:58;7.10;;;4.50;;
2756;SDS011;1386;50.862;6.494;2023-07-16T07:03:25;9.03;;;5.10;;
2756;SDS011;1386;50.862;6.494;2023-07-16T07:05:51;11.00;;;4.73;;
2756;SDS011;1386;50.862;6.494;2023-07-16T07:08:18;10.60;;;4.67;;
2756;SDS011;1386;50.862;6.494;2023-07-16T07:10:46;7.57;;;5.13;;
2756;SDS011;1386;50.862;6.494;2023-07-16T07:13:14;7.00;;;4.40;;
2756;SDS011;1386;50.862;6.494;2023-07-16T07:15:41;8.27;;;4.93;;
2756;SDS011;1386;50.862;6.494;2023-07-16T07:18:08;9.17;;;4.57;;
2756;SDS011;1386;50.862;6.494;2023-07-16T07:20:35;7.60;;;4.43;;
2756;SDS011;1386;50.862;6.494;2023-07-16T07:23:01;7.73;;;4.70;;
2756;SDS011;1386;50.862;6.494;2023-07-16T07:25:28;6.10;;;4.43;;
2756;SDS011;1386;50.862;6.494;2023-07-16T07:27:55;7.23;;;4.23;;
2756;SDS011;1386;50.862;6.494;2023-07-16T07:30:23;8.83;;;4.63;;
2756;SDS011;1386;50.862;6.494;2023-07-16T07:32:50;8.43;;;4.73;;
2756;SDS011;1386;50.862;6.494;2023-07-16T07:35:16;10.17;;;4.93;;
2756;SDS011;1386;50.862;6.494;2023-07-16T07:37:43;8.23;;;4.47;;
2756;SDS011;1386;50.862;6.494;2023-07-16T07:40:10;7.93;;;4.83;;
2756;SDS011;1386;50.862;6.494;2023-07-16T07:42:38;7.50;;;4.70;;
2756;SDS011;1386;50.862;6.494;2023-07-16T07:45:05;6.50;;;4.40;;
2756;SDS011;1386;50.862;6.494;2023-07-16T07:47:34;6.57;;;4.53;;
2756;SDS011;1386;50.862;6.494;2023-07-16T07:50:00;7.40;;;4.40;;
2756;SDS011;1386;50.862;6.494;2023-07-16T07:52:27;6.50;;;4.67;;
2756;SDS011;1386;50.862;6.494;2023-07-16T07:54:54;7.47;;;4.63;;
2756;SDS011;1386;50.862;6.494;2023-07-16T07:57:21;8.17;;;4.43;;
2756;SDS011;1386;50.862;6.494;2023-07-16T07:59:48;8.00;;;4.03;;
2756;SDS011;1386;50.862;6.494;2023-07-16T08:02:16;6.90;;;4.53;;
2756;SDS011;1386;50.862;6.494;2023-07-16T08:04:45;8.27;;;4.03;;
2756;SDS011;1386;50.862;6.494;2023-07-16T08:07:12;5.40;;;3.43;;
2756;SDS011;1386;50.862;6.494;2023-07-16T08:09:38;9.37;;;4.13;;
2756;SDS011;1386;50.862;6.494;2023-07-16T08:12:05;7.37;;;3.80;;
2756;SDS011;1386;50.862;6.494;2023-07-16T08:14:33;5.57;;;4.20;;
2756;SDS011;1386;50.862;6.494;2023-07-16T08:17:00;11.67;;;5.13;;
2756;SDS011;1386;50.862;6.494;2023-07-16T08:19:26;11.53;;;4.10;;
2756;SDS011;1386;50.862;6.494;2023-07-16T08:21:55;9.70;;;4.87;;
2756;SDS011;1386;50.862;6.494;2023-07-16T08:24:21;6.43;;;4.33;;
2756;SDS011;1386;50.862;6.494;2023-07-16T08:26:48;6.87;;;3.73;;
2756;SDS011;1386;50.862;6.494;2023-07-16T08:29:15;7.03;;;3.90;;
2756;SDS011;1386;50.862;6.494;2023-07-16T08:31:42;7.60;;;4.23;;
2756;SDS011;1386;50.862;6.494;2023-07-16T08:34:09;5.80;;;3.60;;
2756;SDS011;1386;50.862;6.494;2023-07-16T08:36:36;6.50;;;3.60;;
2756;SDS011;1386;50.862;6.494;2023-07-16T08:39:05;5.33;;;3.67;;
2756;SDS011;1386;50.862;6.494;2023-07-16T08:41:32;5.70;;;3.67;;
2756;SDS011;1386;50.862;6.494;2023-07-16T08:44:00;5.00;;;4.03;;
2756;SDS011;1386;50.862;6.494;2023-07-16T08:46:27;6.73;;;4.30;;
2756;SDS011;1386;50.862;6.494;2023-07-16T08:48:54;6.30;;;3.97;;
2756;SDS011;1386;50.862;6.494;2023-07-16T08:51:24;6.33;;;3.60;;
2756;SDS011;1386;50.862;6.494;2023-07-16T08:54:05;6.90;;;3.50;;
2756;SDS011;1386;50.862;6.494;2023-07-16T08:56:32;6.60;;;3.77;;
2756;SDS011;1386;50.862;6.494;2023-07-16T08:58:58;5.80;;;3.20;;
2756;SDS011;1386;50.862;6.494;2023-07-16T09:01:26;6.67;;;3.43;;
2756;SDS011;1386;50.862;6.494;2023-07-16T09:03:53;5.20;;;3.50;;
2756;SDS011;1386;50.862;6.494;2023-07-16T09:06:20;3.60;;;2.73;;
2756;SDS011;1386;50.862;6.494;2023-07-16T09:08:47;6.27;;;3.53;;
2756;SDS011;1386;50.862;6.494;2023-07-16T09:11:15;6.70;;;3.53;;
2756;SDS011;1386;50.862;6.494;2023-07-16T09:13:46;4.00;;;3.03;;
2756;SDS011;1386;50.862;6.494;2023-07-16T09:16:13;5.13;;;3.50;;
2756;SDS011;1386;50.862;6.494;2023-07-16T09:18:41;5.23;;;3.70;;
2756;SDS011;1386;50.862;6.494;2023-07-16T09:21:09;4.83;;;3.13;;
2756;SDS011;1386;50.862;6.494;2023-07-16T09:23:35;5.80;;;3.00;;
2756;SDS011;1386;50.862;6.494;2023-07-16T09:26:03;4.13;;;3.27;;
2756;SDS011;1386;50.862;6.494;2023-07-16T09:28:31;4.63;;;3.00;;
2756;SDS011;1386;50.862;6.494;2023-07-16T09:31:03;4.87;;;3.03;;
2756;SDS011;1386;50.862;6.494;2023-07-16T09:33:31;3.47;;;2.90;;
2756;SDS011;1386;50.862;6.494;2023-07-16T09:35:58;8.50;;;3.57;;
2756;SDS011;1386;50.862;6.494;2023-07-16T09:38:25;6.33;;;3.10;;
2756;SDS011;1386;50.862;6.494;2023-07-16T09:40:55;4.90;;;3.20;;
2756;SDS011;1386;50.862;6.494;2023-07-16T09:43:22;3.27;;;2.50;;
2756;SDS011;1386;50.862;6.494;2023-07-16T09:45:50;5.50;;;3.27;;
2756;SDS011;1386;50.862;6.494;2023-07-16T09:48:17;4.60;;;2.93;;
2756;SDS011;1386;50.862;6.494;2023-07-16T09:50:46;5.63;;;2.80;;
2756;SDS011;1386;50.862;6.494;2023-07-16T09:53:16;5.20;;;3.20;;
2756;SDS011;1386;50.862;6.494;2023-07-16T09:55:45;4.63;;;3.10;;
2756;SDS011;1386;50.862;6.494;2023-07-16T09:58:14;3.33;;;2.63;;
2756;SDS011;1386;50.862;6.494;2023-07-16T10:00:44;4.37;;;3.13;;
2756;SDS011;1386;50.862;6.494;2023-07-16T10:03:14;6.90;;;3.37;;
2756;SDS011;1386;50.862;6.494;2023-07-16T10:05:42;5.33;;;2.97;;
2756;SDS011;1386;50.862;6.494;2023-07-16T10:08:15;4.20;;;2.80;;
2756;SDS011;1386;50.862;6.494;2023-07-16T10:10:45;3.73;;;3.10;;
2756;SDS011;1386;50.862;6.494;2023-07-16T10:13:13;3.83;;;3.43;;
2756;SDS011;1386;50.862;6.494;2023-07-16T10:15:50;4.80;;;2.63;;
2756;SDS011;1386;50.862;6.494;2023-07-16T10:18:27;4.90;;;3.53;;
2756;SDS011;1386;50.862;6.494;2023-07-16T10:20:59;3.30;;;2.77;;
2756;SDS011;1386;50.862;6.494;2023-07-16T10:23:36;5.07;;;3.53;;
2756;SDS011;1386;50.862;6.494;2023-07-16T10:26:04;3.90;;;3.23;;
2756;SDS011;1386;50.862;6.494;2023-07-16T10:28:32;3.70;;;2.67;;
2756;SDS011;1386;50.862;6.494;2023-07-16T10:30:59;7.00;;;3.77;;
2756;SDS011;1386;50.862;6.494;2023-07-16T10:33:27;5.87;;;3.00;;
2756;SDS011;1386;50.862;6.494;2023-07-16T10:35:56;4.13;;;2.77;;
2756;SDS011;1386;50.862;6.494;2023-07-16T10:38:23;3.77;;;2.80;;
2756;SDS011;1386;50.862;6.494;2023-07-16T10:40:50;6.03;;;3.27;;
2756;SDS011;1386;50.862;6.494;2023-07-16T10:43:17;4.10;;;2.43;;
2756;SDS011;1386;50.862;6.494;2023-07-16T10:45:44;4.70;;;3.10;;
2756;SDS011;1386;50.862;6.494;2023-07-16T10:48:12;4.70;;;3.07;;
2756;SDS011;1386;50.862;6.494;2023-07-16T10:50:41;5.50;;;2.60;;
2756;SDS011;1386;50.862;6.494;2023-07-16T10:53:08;5.23;;;2.70;;
2756;SDS011;1386;50.862;6.494;2023-07-16T10:55:37;3.63;;;2.73;;
2756;SDS011;1386;50.862;6.494;2023-07-16T10:58:04;5.17;;;2.97;;
2756;SDS011;1386;50.862;6.494;2023-07-16T11:00:36;4.40;;;2.77;;
2756;SDS011;1386;50.862;6.494;2023-07-16T11:03:03;6.90;;;2.70;;
2756;SDS011;1386;50.862;6.494;2023-07-16T11:05:30;3.93;;;2.70;;
2756;SDS011;1386;50.862;6.494;2023-07-16T11:07:58;5.47;;;2.63;;
2756;SDS011;1386;50.862;6.494;2023-07-16T11:10:27;5.20;;;2.63;;
2756;SDS011;1386;50.862;6.494;2023-07-16T11:12:55;2.80;;;2.50;;
2756;SDS011;1386;50.862;6.494;2023-07-16T11:15:30;3.37;;;2.93;;
2756;SDS011;1386;50.862;6.494;2023-07-16T11:17:58;6.00;;;3.00;;
2756;SDS011;1386;50.862;6.494;2023-07-16T11:20:25;4.20;;;3.20;;
2756;SDS011;1386;50.862;6.494;2023-07-16T11:22:52;6.17;;;3.13;;
2756;SDS011;1386;50.862;6.494;2023-07-16T11:25:23;6.33;;;2.90;;
2756;SDS011;1386;50.862;6.494;2023-07-16T11:27:50;5.20;;;2.90;;
2756;SDS011;1386;50.862;6.494;2023-07-16T11:30:22;5.13;;;2.63;;
2756;SDS011;1386;50.862;6.494;2023-07-16T11:32:49;3.70;;;2.87;;
2756;SDS011;1386;50.862;6.494;2023-07-16T11:35:17;5.40;;;3.67;;
2756;SDS011;1386;50.862;6.494;2023-07-16T11:37:45;4.70;;;3.13;;
2756;SDS011;1386;50.862;6.494;2023-07-16T11:40:14;5.10;;;3.27;;
2756;SDS011;1386;50.862;6.494;2023-07-16T11:42:44;6.20;;;3.93;;
2756;SDS011;1386;50.862;6.494;2023-07-16T11:45:17;5.10;;;3.33;;
2756;SDS011;1386;50.862;6.494;2023-07-16T11:47:45;5.70;;;3.17;;
2756;SDS011;1386;50.862;6.494;2023-07-16T11:50:12;6.10;;;3.13;;
2756;SDS011;1386;50.862;6.494;2023-07-16T11:52:39;7.63;;;3.43;;
2756;SDS011;1386;50.862;6.494;2023-07-16T11:55:06;5.70;;;3.60;;
2756;SDS011;1386;50.862;6.494;2023-07-16T11:57:33;5.90;;;3.37;;
2756;SDS011;1386;50.862;6.494;2023-07-16T12:00:02;4.07;;;3.23;;
2756;SDS011;1386;50.862;6.494;2023-07-16T12:02:30;6.17;;;3.70;;
2756;SDS011;1386;50.862;6.494;2023-07-16T12:04:57;4.67;;;3.03;;
2756;SDS011;1386;50.862;6.494;2023-07-16T12:07:31;4.07;;;3.00;;
2756;SDS011;1386;50.862;6.494;2023-07-16T12:09:58;7.53;;;3.20;;
2756;SDS011;1386;50.862;6.494;2023-07-16T12:12:25;7.60;;;3.30;;
2756;SDS011;1386;50.862;6.494;2023-07-16T12:14:52;5.53;;;3.50;;
2756;SDS011;1386;50.862;6.494;2023-07-16T12:17:20;5.77;;;3.07;;
2756;SDS011;1386;50.862;6.494;2023-07-16T12:19:47;5.37;;;3.60;;
2756;SDS011;1386;50.862;6.494;2023-07-16T12:22:14;5.13;;;3.60;;
2756;SDS011;1386;50.862;6.494;2023-07-16T12:24:43;4.50;;;3.10;;
2756;SDS011;1386;50.862;6.494;2023-07-16T12:27:10;6.43;;;3.10;;
2756;SDS011;1386;50.862;6.494;2023-07-16T12:29:37;4.23;;;3.37;;
2756;SDS011;1386;50.862;6.494;2023-07-16T12:32:04;5.20;;;3.33;;
2756;SDS011;1386;50.862;6.494;2023-07-16T12:34:34;8.73;;;3.60;;
2756;SDS011;1386;50.862;6.494;2023-07-16T12:37:01;5.47;;;2.80;;
2756;SDS011;1386;50.862;6.494;2023-07-16T12:39:29;5.90;;;2.70;;
2756;SDS011;1386;50.862;6.494;2023-07-16T12:41:55;3.70;;;3.07;;
2756;SDS011;1386;50.862;6.494;2023-07-16T12:44:22;7.70;;;3.00;;
2756;SDS011;1386;50.862;6.494;2023-07-16T12:46:49;3.97;;;2.67;;
2756;SDS011;1386;50.862;6.494;2023-07-16T12:49:16;7.83;;;2.80;;
2756;SDS011;1386;50.862;6.494;2023-07-16T12:51:44;3.30;;;2.50;;
2756;SDS011;1386;50.862;6.494;2023-07-16T12:54:11;3.00;;;2.00;;
2756;SDS011;1386;50.862;6.494;2023-07-16T12:56:38;4.77;;;3.00;;
2756;SDS011;1386;50.862;6.494;2023-07-16T12:59:05;7.63;;;2.77;;
2756;SDS011;1386;50.862;6.494;2023-07-16T13:01:32;3.43;;;2.90;;
2756;SDS011;1386;50.862;6.494;2023-07-16T13:03:58;5.10;;;2.67;;
2756;SDS011;1386;50.862;6.494;2023-07-16T13:06:25;6.80;;;2.53;;
2756;SDS011;1386;50.862;6.494;2023-07-16T13:08:53;4.37;;;2.43;;
2756;SDS011;1386;50.862;6.494;2023-07-16T13:11:20;5.63;;;2.60;;
2756;SDS011;1386;50.862;6.494;2023-07-16T13:13:47;4.27;;;2.70;;
2756;SDS011;1386;50.862;6.494;2023-07-16T13:16:14;3.77;;;2.57;;
2756;SDS011;1386;50.862;6.494;2023-07-16T13:18:41;4.00;;;2.63;;
2756;SDS011;1386;50.862;6.494;2023-07-16T13:21:08;3.57;;;2.40;;
2756;SDS011;1386;50.862;6.494;2023-07-16T13:23:34;4.60;;;2.27;;
2756;SDS011;1386;50.862;6.494;2023-07-16T13:26:03;2.80;;;2.47;;
2756;SDS011;1386;50.862;6.494;2023-07-16T13:28:29;4.77;;;2.80;;
2756;SDS011;1386;50.862;6.494;2023-07-16T13:30:56;3.77;;;2.50;;
2756;SDS011;1386;50.862;6.494;2023-07-16T13:33:23;3.77;;;2.73;;
2756;SDS011;1386;50.862;6.494;2023-07-16T13:35:50;5.50;;;2.70;;
2756;SDS011;1386;50.862;6.494;2023-07-16T13:38:17;4.97;;;2.90;;
2756;SDS011;1386;50.862;6.494;2023-07-16T13:40:43;5.00;;;2.87;;
2756;SDS011;1386;50.862;6.494;2023-07-16T13:43:12;4.80;;;3.40;;
2756;SDS011;1386;50.862;6.494;2023-07-16T13:45:39;3.90;;;2.70;;
2756;SDS011;1386;50.862;6.494;2023-07-16T13:48:05;3.97;;;2.30;;
2756;SDS011;1386;50.862;6.494;2023-07-16T13:50:32;4.90;;;2.90;;
2756;SDS011;1386;50.862;6.494;2023-07-16T13:52:59;4.53;;;3.10;;
2756;SDS011;1386;50.862;6.494;2023-07-16T13:55:26;5.47;;;2.90;;
2756;SDS011;1386;50.862;6.494;2023-07-16T13:57:53;6.20;;;2.90;;
2756;SDS011;1386;50.862;6.494;2023-07-16T14:00:22;6.63;;;2.43;;
2756;SDS011;1386;50.862;6.494;2023-07-16T14:02:49;4.33;;;2.30;;
2756;SDS011;1386;50.862;6.494;2023-07-16T14:05:16;4.00;;;2.40;;
2756;SDS011;1386;50.862;6.494;2023-07-16T14:07:44;7.13;;;2.70;;
2756;SDS011;1386;50.862;6.494;2023-07-16T14:10:11;3.43;;;2.30;;
2756;SDS011;1386;50.862;6.494;2023-07-16T14:12:38;4.90;;;2.90;;
2756;SDS011;1386;50.862;6.494;2023-07-16T14:15:06;4.67;;;2.70;;
2756;SDS011;1386;50.862;6.494;2023-07-16T14:17:34;3.17;;;2.20;;
2756;SDS011;1386;50.862;6.494;2023-07-16T14:20:01;6.40;;;2.67;;
2756;SDS011;1386;50.862;6.494;2023-07-16T14:22:28;4.67;;;2.67;;
2756;SDS011;1386;50.862;6.494;2023-07-16T14:24:55;5.97;;;3.60;;
2756;SDS011;1386;50.862;6.494;2023-07-16T14:27:22;4.93;;;2.70;;
2756;SDS011;1386;50.862;6.494;2023-07-16T14:29:49;4.70;;;3.43;;
2756;SDS011;1386;50.862;6.494;2023-07-16T14:32:16;3.50;;;2.47;;
2756;SDS011;1386;50.862;6.494;2023-07-16T14:34:44;3.00;;;2.40;;
2756;SDS011;1386;50.862;6.494;2023-07-16T14:37:11;4.37;;;2.83;;
2756;SDS011;1386;50.862;6.494;2023-07-16T14:39:38;6.50;;;2.70;;
2756;SDS011;1386;50.862;6.494;2023-07-16T14:42:05;4.63;;;2.93;;
2756;SDS011;1386;50.862;6.494;2023-07-16T14:44:32;4.57;;;2.73;;
2756;SDS011;1386;50.862;6.494;2023-07-16T14:46:59;5.60;;;2.63;;
2756;SDS011;1386;50.862;6.494;2023-07-16T14:49:26;6.17;;;3.10;;
2756;SDS011;1386;50.862;6.494;2023-07-16T14:51:54;3.60;;;2.63;;
2756;SDS011;1386;50.862;6.494;2023-07-16T14:54:21;5.50;;;2.80;;
2756;SDS011;1386;50.862;6.494;2023-07-16T14:56:47;4.50;;;2.80;;
2756;SDS011;1386;50.862;6.494;2023-07-16T14:59:14;3.80;;;2.73;;
2756;SDS011;1386;50.862;6.494;2023-07-16T15:01:42;3.93;;;2.80;;
2756;SDS011;1386;50.862;6.494;2023-07-16T15:04:09;5.47;;;3.10;;
2756;SDS011;1386;50.862;6.494;2023-07-16T15:06:36;5.07;;;2.87;;
2756;SDS011;1386;50.862;6.494;2023-07-16T15:09:05;4.13;;;2.50;;
2756;SDS011;1386;50.862;6.494;2023-07-16T15:11:32;3.77;;;2.63;;
2756;SDS011;1386;50.862;6.494;2023-07-16T15:13:59;5.50;;;2.60;;
2756;SDS011;1386;50.862;6.494;2023-07-16T17:19:33;5.00;;;3.37;;
2756;SDS011;1386;50.862;6.494;2023-07-16T17:21:59;9.50;;;3.10;;
2756;SDS011;1386;50.862;6.494;2023-07-16T17:24:26;8.40;;;3.57;;
2756;SDS011;1386;50.862;6.494;2023-07-16T17:26:56;5.47;;;3.17;;
2756;SDS011;1386;50.862;6.494;2023-07-16T17:29:29;5.47;;;3.23;;
2756;SDS011;1386;50.862;6.494;2023-07-16T17:31:56;5.20;;;2.90;;
2756;SDS011;1386;50.862;6.494;2023-07-16T17:37:35;5.53;;;3.40;;
2756;SDS011;1386;50.862;6.494;2023-07-16T17:40:02;5.20;;;3.33;;
2756;SDS011;1386;50.862;6.494;2023-07-16T17:42:29;4.77;;;2.87;;
2756;SDS011;1386;50.862;6.494;2023-07-16T17:48:15;4.37;;;2.53;;
2756;SDS011;1386;50.862;6.494;2023-07-16T18:00:33;5.50;;;2.83;;
2756;SDS011;1386;50.862;6.494;2023-07-16T18:03:00;7.93;;;3.93;;
2756;SDS011;1386;50.862;6.494;2023-07-16T18:05:29;4.57;;;2.57;;
2756;SDS011;1386;50.862;6.494;2023-07-16T18:08:03;5.77;;;2.80;;
